Time;durP1;ratioP1;P1;durP2;ratioP2;P2;SDS_P1;SDS_P2;PMS_P1;PMS_P2;Temp;Humidity;BMP_temperature;BMP_pressure;BME280_temperature;BME280_humidity;BME280_pressure;Samples;Min_cycle;Max_cycle;Signal;HPM_P1;HPM_P2
2024/02/24 00:01:40;;;;;;;0.45;0.45;;;4.30;85.40;;;;;;5024185;28;20143;-68
2024/02/24 00:04:06;;;;;;;2.30;0.40;;;4.20;85.80;;;;;;5027910;28;20407;-68
2024/02/24 00:06:31;;;;;;;1.55;0.40;;;4.20;86.00;;;;;;5029690;28;20128;-68
2024/02/24 00:08:57;;;;;;;1.70;0.47;;;4.10;86.30;;;;;;5024622;28;20121;-68
2024/02/24 00:11:22;;;;;;;0.50;0.40;;;4.10;86.70;;;;;;5023574;28;20572;-68
2024/02/24 00:13:48;;;;;;;0.55;0.50;;;4.10;86.30;;;;;;5026418;28;20097;-68
2024/02/24 00:16:14;;;;;;;0.43;0.43;;;4.00;86.50;;;;;;5023108;28;20198;-68
2024/02/24 00:18:39;;;;;;;0.93;0.30;;;4.00;86.70;;;;;;5026430;28;20064;-68
2024/02/24 00:21:05;;;;;;;0.30;0.30;;;3.90;87.20;;;;;;5030805;28;20034;-68
2024/02/24 00:23:30;;;;;;;0.43;0.40;;;3.80;87.20;;;;;;5024767;28;20518;-68
2024/02/24 00:25:56;;;;;;;1.20;0.65;;;3.80;87.30;;;;;;5027245;28;20203;-68
2024/02/24 00:28:21;;;;;;;1.65;0.75;;;3.70;87.50;;;;;;5026369;28;20029;-68
2024/02/24 00:30:47;;;;;;;0.47;0.43;;;3.60;87.70;;;;;;5024302;28;20045;-68
2024/02/24 00:33:12;;;;;;;0.90;0.50;;;3.60;88.00;;;;;;5033291;28;20033;-67
2024/02/24 00:35:39;;;;;;;1.70;0.70;;;3.50;88.10;;;;;;5023386;28;20033;-68
2024/02/24 00:38:05;;;;;;;1.17;0.65;;;3.50;88.40;;;;;;5028228;28;20104;-68
2024/02/24 00:40:30;;;;;;;2.58;0.55;;;3.50;88.70;;;;;;5024913;28;20165;-68
2024/02/24 00:42:56;;;;;;;1.30;0.50;;;3.40;88.70;;;;;;5026287;28;20033;-68
2024/02/24 00:45:21;;;;;;;1.08;0.60;;;3.40;89.00;;;;;;5022328;28;20047;-68
2024/02/24 00:47:46;;;;;;;0.63;0.40;;;3.30;89.00;;;;;;5028347;28;20228;-67
2024/02/24 00:50:12;;;;;;;3.05;0.50;;;3.40;89.00;;;;;;5026210;28;20416;-68
2024/02/24 00:52:37;;;;;;;1.58;0.80;;;3.40;88.80;;;;;;5027342;28;20040;-67
2024/02/24 00:55:03;;;;;;;2.20;0.55;;;3.40;88.90;;;;;;5024392;28;20168;-68
2024/02/24 00:57:29;;;;;;;1.55;0.57;;;3.30;88.80;;;;;;5025097;28;20032;-67
2024/02/24 00:59:54;;;;;;;1.08;0.47;;;3.30;89.00;;;;;;5022825;28;20602;-68
2024/02/24 01:02:20;;;;;;;1.20;0.90;;;3.20;89.10;;;;;;5027096;28;20128;-68
2024/02/24 01:04:48;;;;;;;2.20;0.57;;;3.30;89.10;;;;;;5024043;28;20401;-68
2024/02/24 01:07:15;;;;;;;0.82;0.60;;;3.10;89.20;;;;;;5024459;28;20388;-67
2024/02/24 01:09:41;;;;;;;0.70;0.50;;;3.10;89.40;;;;;;5024659;28;20128;-68
2024/02/24 01:12:06;;;;;;;2.20;0.63;;;3.10;89.60;;;;;;5024660;28;20389;-68
2024/02/24 01:14:32;;;;;;;3.65;0.63;;;2.90;89.80;;;;;;5023764;28;20053;-67
2024/02/24 01:16:57;;;;;;;0.50;0.50;;;2.90;90.10;;;;;;5022387;28;20077;-68
2024/02/24 01:19:23;;;;;;;0.68;0.47;;;2.90;90.40;;;;;;5024156;28;20063;-68
2024/02/24 01:21:49;;;;;;;1.23;0.50;;;2.80;90.30;;;;;;5026576;28;20447;-67
2024/02/24 01:24:14;;;;;;;0.52;0.40;;;2.70;90.80;;;;;;5027177;28;20033;-67
2024/02/24 01:26:40;;;;;;;1.13;0.57;;;2.60;90.60;;;;;;5027920;28;20183;-68
2024/02/24 01:29:05;;;;;;;1.13;0.50;;;2.60;90.90;;;;;;5029925;28;20175;-67
2024/02/24 01:31:31;;;;;;;0.73;0.50;;;2.60;91.20;;;;;;5030762;28;20113;-68
2024/02/24 01:33:57;;;;;;;0.98;0.40;;;2.60;91.30;;;;;;5043589;28;20555;-68
2024/02/24 01:36:22;;;;;;;1.02;0.60;;;2.60;91.50;;;;;;5030453;28;20446;-68
2024/02/24 01:38:48;;;;;;;1.40;0.77;;;2.50;91.60;;;;;;5044026;28;20451;-68
2024/02/24 01:41:13;;;;;;;0.50;0.45;;;2.50;91.90;;;;;;5036149;28;20067;-68
2024/02/24 01:43:39;;;;;;;0.60;0.60;;;2.40;92.00;;;;;;5028983;28;20145;-68
2024/02/24 01:46:07;;;;;;;1.95;0.60;;;2.40;92.30;;;;;;5032554;28;20026;-68
2024/02/24 01:48:32;;;;;;;0.93;0.47;;;2.40;92.00;;;;;;5031398;28;20114;-68
2024/02/24 01:50:59;;;;;;;2.20;0.70;;;2.50;92.10;;;;;;5027174;28;20108;-67
2024/02/24 01:53:26;;;;;;;2.33;0.70;;;2.60;92.20;;;;;;5036241;28;20124;-68
2024/02/24 01:55:53;;;;;;;0.85;0.40;;;2.40;92.10;;;;;;5034595;28;20473;-68
2024/02/24 01:58:19;;;;;;;1.95;0.40;;;2.40;92.20;;;;;;5025441;28;20116;-68
2024/02/24 02:00:46;;;;;;;1.20;0.63;;;2.40;92.30;;;;;;5027116;28;20506;-67
2024/02/24 02:03:11;;;;;;;1.70;0.70;;;2.40;92.40;;;;;;5029169;28;20033;-68
2024/02/24 02:05:37;;;;;;;0.80;0.50;;;2.40;92.50;;;;;;5026218;28;20029;-67
2024/02/24 02:08:02;;;;;;;0.80;0.47;;;2.50;92.50;;;;;;5025815;28;20033;-67
2024/02/24 02:10:48;;;;;;;1.63;0.98;;;2.40;92.30;;;;;;5026560;28;20167;-68
2024/02/24 02:13:15;;;;;;;0.40;0.40;;;2.30;92.60;;;;;;5024152;28;20041;-67
2024/02/24 02:15:43;;;;;;;0.50;0.50;;;2.30;92.50;;;;;;5025023;28;20053;-67
2024/02/24 02:18:09;;;;;;;0.93;0.70;;;2.30;92.90;;;;;;5028351;28;20044;-67
2024/02/24 02:20:35;;;;;;;0.35;0.35;;;2.30;92.80;;;;;;5027148;28;20041;-68
2024/02/24 02:23:00;;;;;;;1.38;0.65;;;2.20;92.90;;;;;;5021296;28;20033;-68
2024/02/24 02:25:26;;;;;;;1.08;0.40;;;2.20;92.90;;;;;;5026041;28;20042;-68
2024/02/24 02:27:51;;;;;;;1.42;0.80;;;2.20;93.00;;;;;;5025649;28;20454;-67
2024/02/24 02:30:17;;;;;;;1.38;0.50;;;2.10;93.10;;;;;;5024523;28;20034;-68
2024/02/24 02:32:42;;;;;;;0.43;0.43;;;2.10;93.40;;;;;;5027830;28;20112;-68
2024/02/24 02:35:09;;;;;;;0.52;0.52;;;2.10;93.30;;;;;;5024370;28;20042;-68
2024/02/24 02:37:35;;;;;;;1.05;0.65;;;2.10;93.20;;;;;;5022803;28;20252;-67
2024/02/24 02:40:01;;;;;;;1.40;0.60;;;2.10;93.30;;;;;;5025140;28;20141;-68
2024/02/24 02:42:26;;;;;;;0.75;0.50;;;2.00;93.40;;;;;;5025826;28;20104;-68
2024/02/24 02:44:52;;;;;;;0.55;0.55;;;2.00;93.70;;;;;;5024095;28;20177;-68
2024/02/24 02:47:17;;;;;;;1.27;0.60;;;2.10;93.70;;;;;;5023772;28;20053;-68
2024/02/24 02:49:43;;;;;;;0.70;0.50;;;2.00;93.60;;;;;;5034427;28;20487;-68
2024/02/24 02:52:08;;;;;;;1.15;0.70;;;2.00;93.70;;;;;;5024056;28;20038;-67
2024/02/24 02:54:34;;;;;;;3.50;0.80;;;1.90;93.60;;;;;;5027115;28;20447;-68
2024/02/24 02:56:59;;;;;;;1.83;0.63;;;2.00;93.90;;;;;;5025114;28;20033;-68
2024/02/24 02:59:25;;;;;;;0.82;0.60;;;1.90;93.90;;;;;;5024395;28;20078;-68
2024/02/24 03:01:54;;;;;;;1.58;0.65;;;1.90;93.90;;;;;;5023606;28;20025;-67
2024/02/24 03:04:20;;;;;;;0.43;0.43;;;1.90;94.00;;;;;;5022969;28;20051;-68
2024/02/24 03:06:45;;;;;;;1.50;0.52;;;1.90;94.00;;;;;;5019450;28;20057;-68
2024/02/24 03:09:11;;;;;;;0.82;0.75;;;1.90;94.10;;;;;;5018458;28;20116;-68
2024/02/24 03:11:36;;;;;;;0.75;0.50;;;1.80;94.00;;;;;;5020478;28;20142;-67
2024/02/24 03:14:03;;;;;;;1.00;0.60;;;1.80;94.00;;;;;;5024209;28;20095;-68
2024/02/24 03:16:28;;;;;;;0.38;0.38;;;1.80;94.20;;;;;;5022859;28;20380;-68
2024/02/24 03:18:54;;;;;;;0.63;0.60;;;1.80;94.20;;;;;;5023382;28;20034;-68
2024/02/24 03:21:31;;;;;;;0.90;0.68;;;1.90;94.10;;;;;;5026005;28;20033;-67
2024/02/24 03:23:57;;;;;;;0.65;0.60;;;1.80;94.10;;;;;;5021161;28;20109;-67
2024/02/24 03:26:22;;;;;;;2.42;0.73;;;1.70;94.20;;;;;;5024233;28;20229;-67
2024/02/24 03:28:48;;;;;;;0.50;0.50;;;1.70;94.40;;;;;;5023793;28;20447;-68
2024/02/24 03:31:13;;;;;;;0.70;0.70;;;1.70;94.40;;;;;;5023924;28;20040;-67
2024/02/24 03:33:39;;;;;;;0.55;0.50;;;1.70;94.50;;;;;;5023422;28;20061;-68
2024/02/24 03:36:04;;;;;;;1.77;0.85;;;1.70;94.60;;;;;;5020482;28;20033;-68
2024/02/24 03:38:30;;;;;;;1.88;0.63;;;1.60;94.40;;;;;;5024212;28;20041;-67
2024/02/24 03:40:55;;;;;;;1.60;0.77;;;1.70;94.70;;;;;;5023537;28;20025;-68
2024/02/24 03:43:21;;;;;;;1.65;0.85;;;1.60;94.40;;;;;;5021659;28;20030;-68
2024/02/24 03:45:46;;;;;;;0.75;0.73;;;1.60;94.70;;;;;;5023928;28;20049;-68
2024/02/24 03:48:12;;;;;;;2.22;0.57;;;1.60;94.80;;;;;;5025530;28;20117;-68
2024/02/24 03:50:37;;;;;;;1.55;0.75;;;1.60;94.80;;;;;;5019844;28;20046;-68
2024/02/24 03:53:03;;;;;;;0.88;0.55;;;1.60;94.80;;;;;;5022806;28;20060;-68
2024/02/24 03:55:28;;;;;;;1.70;0.63;;;1.60;94.90;;;;;;5023749;28;20328;-67
2024/02/24 03:57:54;;;;;;;1.15;0.50;;;1.60;94.90;;;;;;5019505;28;20041;-67
2024/02/24 04:00:19;;;;;;;1.10;0.60;;;1.60;94.90;;;;;;5022036;28;20487;-68
2024/02/24 04:02:45;;;;;;;1.45;0.68;;;1.70;94.90;;;;;;5024779;28;20029;-67
2024/02/24 04:05:11;;;;;;;0.57;0.57;;;1.60;94.80;;;;;;5020751;28;20056;-67
2024/02/24 04:07:36;;;;;;;2.17;0.57;;;1.60;94.80;;;;;;5023117;28;20279;-67
2024/02/24 04:10:03;;;;;;;1.75;0.80;;;1.60;94.90;;;;;;5024808;28;20037;-67
2024/02/24 04:12:28;;;;;;;1.05;0.60;;;1.60;95.00;;;;;;5025263;28;20037;-67
2024/02/24 04:14:53;;;;;;;0.75;0.65;;;1.60;95.10;;;;;;5021682;28;20057;-68
2024/02/24 04:17:19;;;;;;;0.68;0.60;;;1.60;95.10;;;;;;5025108;28;20099;-67
2024/02/24 04:19:44;;;;;;;1.88;0.63;;;1.60;95.10;;;;;;5024502;28;20029;-68
2024/02/24 04:22:10;;;;;;;0.77;0.60;;;1.60;95.00;;;;;;5023738;28;20171;-68
2024/02/24 04:24:35;;;;;;;1.00;0.80;;;1.60;95.00;;;;;;5025702;28;20108;-67
2024/02/24 04:27:01;;;;;;;0.50;0.50;;;1.40;95.00;;;;;;5025060;28;20494;-68
2024/02/24 04:29:26;;;;;;;1.90;1.10;;;1.40;95.30;;;;;;5022066;28;20049;-68
2024/02/24 04:31:53;;;;;;;0.82;0.68;;;1.30;95.20;;;;;;5026677;28;20215;-68
2024/02/24 04:34:18;;;;;;;2.65;0.75;;;1.30;95.60;;;;;;5021683;28;20584;-68
2024/02/24 04:36:44;;;;;;;0.60;0.60;;;1.30;95.70;;;;;;5024344;28;20037;-68
2024/02/24 04:39:09;;;;;;;0.90;0.65;;;1.30;95.70;;;;;;5024877;28;20422;-68
2024/02/24 04:41:35;;;;;;;0.95;0.57;;;1.30;95.50;;;;;;5024772;28;20045;-67
2024/02/24 04:44:01;;;;;;;5.05;0.93;;;1.40;95.80;;;;;;5024017;28;20029;-68
2024/02/24 04:46:26;;;;;;;1.52;0.70;;;1.30;95.50;;;;;;5024484;28;20045;-67
2024/02/24 04:48:52;;;;;;;0.55;0.55;;;1.40;95.70;;;;;;5024991;28;20124;-68
2024/02/24 04:51:17;;;;;;;2.05;1.02;;;1.30;95.70;;;;;;5024986;28;20034;-68
2024/02/24 04:53:43;;;;;;;2.90;0.80;;;1.40;95.70;;;;;;5026763;28;20048;-68
2024/02/24 04:56:11;;;;;;;0.75;0.63;;;1.50;95.60;;;;;;5027792;28;20120;-69
2024/02/24 04:58:36;;;;;;;0.60;0.60;;;1.50;95.60;;;;;;5024043;28;20034;-68
2024/02/24 05:01:02;;;;;;;0.77;0.50;;;1.50;95.50;;;;;;5023678;28;20081;-69
2024/02/24 05:03:27;;;;;;;1.27;0.82;;;1.60;95.50;;;;;;5030974;28;20085;-69
2024/02/24 05:05:53;;;;;;;2.50;0.75;;;1.60;95.40;;;;;;5026336;28;20061;-69
2024/02/24 05:08:18;;;;;;;0.40;0.40;;;1.60;95.40;;;;;;5026984;28;20052;-68
2024/02/24 05:10:44;;;;;;;2.05;0.90;;;1.50;95.30;;;;;;5025784;28;20120;-68
2024/02/24 05:13:09;;;;;;;0.40;0.40;;;1.50;95.40;;;;;;5027837;28;20045;-69
2024/02/24 05:15:35;;;;;;;0.55;0.50;;;1.40;95.30;;;;;;5026853;28;20412;-69
2024/02/24 05:18:01;;;;;;;1.55;0.60;;;1.30;95.40;;;;;;5029598;28;20041;-69
2024/02/24 05:20:26;;;;;;;1.13;0.70;;;1.40;95.60;;;;;;5021974;28;20026;-69
2024/02/24 05:22:51;;;;;;;1.00;0.80;;;1.40;95.70;;;;;;5025167;28;20029;-69
2024/02/24 05:25:17;;;;;;;0.88;0.70;;;1.40;95.70;;;;;;5027802;28;20116;-69
2024/02/24 05:27:43;;;;;;;0.95;0.50;;;1.50;95.70;;;;;;5029088;28;20444;-69
2024/02/24 05:30:08;;;;;;;4.78;0.63;;;1.60;95.40;;;;;;5038273;28;20033;-66
2024/02/24 05:32:34;;;;;;;0.75;0.50;;;1.60;95.30;;;;;;5035541;28;20029;-66
2024/02/24 05:34:59;;;;;;;1.08;0.63;;;1.60;95.20;;;;;;5028431;28;20220;-66
2024/02/24 05:37:25;;;;;;;1.73;0.90;;;1.60;95.40;;;;;;5035024;28;20085;-67
2024/02/24 05:39:52;;;;;;;2.85;0.95;;;1.60;95.20;;;;;;5034702;28;20056;-66
2024/02/24 05:42:17;;;;;;;1.15;0.60;;;1.60;95.30;;;;;;5026140;28;20025;-66
2024/02/24 05:44:43;;;;;;;0.88;0.70;;;1.70;95.10;;;;;;5033074;28;20121;-67
2024/02/24 05:47:08;;;;;;;1.75;0.98;;;1.90;95.20;;;;;;5031293;28;20132;-66
2024/02/24 05:49:34;;;;;;;2.38;0.80;;;2.00;94.90;;;;;;5028417;28;20053;-66
2024/02/24 05:51:59;;;;;;;1.23;0.68;;;2.10;94.50;;;;;;5030662;28;20444;-66
2024/02/24 05:54:25;;;;;;;1.85;0.90;;;2.10;94.30;;;;;;5028888;28;20106;-66
2024/02/24 05:56:50;;;;;;;0.73;0.70;;;2.10;94.30;;;;;;5030113;28;20049;-67
2024/02/24 05:59:16;;;;;;;0.68;0.60;;;2.20;94.00;;;;;;5026840;28;20048;-66
2024/02/24 06:01:41;;;;;;;1.10;0.60;;;2.30;93.80;;;;;;5027936;28;20048;-66
2024/02/24 06:04:07;;;;;;;1.15;0.70;;;2.40;93.60;;;;;;5028693;28;20167;-66
2024/02/24 06:06:32;;;;;;;1.60;0.90;;;2.40;93.60;;;;;;5033956;28;20134;-66
2024/02/24 06:08:58;;;;;;;1.40;0.70;;;2.50;93.40;;;;;;5038628;28;20025;-67
2024/02/24 06:11:23;;;;;;;1.35;0.65;;;2.60;93.30;;;;;;5036401;28;20372;-67
2024/02/24 06:13:52;;;;;;;1.10;0.65;;;2.60;93.00;;;;;;5024999;28;20041;-67
2024/02/24 06:16:18;;;;;;;1.10;0.60;;;2.60;93.00;;;;;;5025062;28;20041;-66
2024/02/24 06:18:43;;;;;;;0.60;0.60;;;2.60;92.80;;;;;;5028965;28;20049;-67
2024/02/24 06:21:09;;;;;;;3.45;0.88;;;2.70;92.60;;;;;;5025237;28;20084;-66
2024/02/24 06:23:35;;;;;;;2.47;0.90;;;2.70;92.60;;;;;;5027787;28;20030;-67
2024/02/24 06:26:00;;;;;;;1.38;0.68;;;2.70;92.60;;;;;;5025465;28;20112;-66
2024/02/24 06:28:26;;;;;;;1.02;0.60;;;2.80;92.50;;;;;;5025263;28;20030;-66
2024/02/24 06:30:51;;;;;;;1.38;0.50;;;2.80;92.50;;;;;;5028296;28;20181;-67
2024/02/24 06:33:17;;;;;;;2.30;0.50;;;2.80;92.40;;;;;;5020402;28;20079;-66
2024/02/24 06:35:42;;;;;;;2.53;0.93;;;2.80;92.30;;;;;;5025158;28;20084;-65
2024/02/24 06:38:08;;;;;;;1.00;0.50;;;2.90;92.40;;;;;;5043915;28;20371;-66
2024/02/24 06:40:33;;;;;;;1.30;0.88;;;2.90;92.30;;;;;;5029809;28;20456;-66
2024/02/24 06:42:59;;;;;;;1.77;0.70;;;2.90;92.30;;;;;;5025344;28;20030;-65
2024/02/24 06:45:24;;;;;;;3.38;0.88;;;2.90;92.30;;;;;;5025776;28;20112;-66
2024/02/24 06:47:50;;;;;;;3.38;0.80;;;2.90;92.30;;;;;;5027401;28;20112;-66
2024/02/24 06:50:15;;;;;;;2.70;0.82;;;2.90;92.30;;;;;;5025312;28;20038;-66
2024/02/24 06:52:41;;;;;;;0.75;0.55;;;3.00;92.40;;;;;;5023812;28;20051;-66
2024/02/24 06:55:06;;;;;;;1.30;0.73;;;3.00;92.20;;;;;;5026497;28;20091;-66
2024/02/24 06:57:32;;;;;;;1.92;0.65;;;3.10;92.00;;;;;;5025974;28;20063;-66
2024/02/24 06:59:57;;;;;;;0.80;0.75;;;3.10;92.00;;;;;;5024028;28;20440;-67
2024/02/24 07:02:23;;;;;;;0.65;0.50;;;3.10;92.00;;;;;;5034819;28;20052;-66
2024/02/24 07:04:48;;;;;;;1.40;0.52;;;3.10;92.00;;;;;;5036433;28;20047;-66
2024/02/24 07:07:14;;;;;;;0.70;0.60;;;3.10;91.80;;;;;;5029709;28;20040;-65
2024/02/24 07:09:39;;;;;;;8.55;1.20;;;3.10;91.80;;;;;;5028930;28;20033;-66
2024/02/24 07:12:06;;;;;;;2.65;0.65;;;3.10;91.90;;;;;;5026349;28;20044;-66
2024/02/24 07:14:33;;;;;;;2.85;0.57;;;3.10;91.90;;;;;;5024446;28;20038;-66
2024/02/24 07:16:58;;;;;;;0.85;0.52;;;3.20;91.90;;;;;;5029358;28;20156;-66
2024/02/24 07:19:24;;;;;;;0.60;0.40;;;3.20;91.60;;;;;;5025872;28;20725;-66
2024/02/24 07:21:49;;;;;;;0.80;0.68;;;3.30;91.60;;;;;;5022771;28;20048;-67
2024/02/24 07:24:14;;;;;;;1.05;0.65;;;3.30;91.70;;;;;;5027606;28;20041;-67
2024/02/24 07:26:44;;;;;;;1.23;0.60;;;3.30;91.40;;;;;;5030092;28;20116;-66
2024/02/24 07:29:09;;;;;;;0.52;0.50;;;3.30;91.40;;;;;;5026266;28;20053;-66
2024/02/24 07:31:36;;;;;;;1.40;0.68;;;3.40;91.50;;;;;;5034377;28;20075;-66
2024/02/24 07:34:02;;;;;;;1.40;0.55;;;3.40;91.50;;;;;;5037984;28;20042;-66
2024/02/24 07:36:29;;;;;;;1.27;0.40;;;3.50;91.30;;;;;;5034423;28;20041;-66
2024/02/24 07:38:58;;;;;;;1.85;0.82;;;3.50;91.20;;;;;;5034162;28;20029;-66
2024/02/24 07:41:24;;;;;;;0.80;0.55;;;3.60;91.10;;;;;;5030664;28;20044;-66
2024/02/24 07:43:50;;;;;;;1.30;0.63;;;3.60;90.90;;;;;;5023306;28;20063;-66
2024/02/24 07:46:32;;;;;;;1.75;0.77;;;3.70;90.80;;;;;;5030102;28;20041;-66
2024/02/24 07:49:01;;;;;;;1.23;0.60;;;3.80;90.80;;;;;;5023489;28;20375;-66
2024/02/24 07:51:28;;;;;;;1.42;0.70;;;3.80;90.50;;;;;;5023897;28;20044;-66
2024/02/24 07:53:54;;;;;;;0.40;0.40;;;3.90;90.40;;;;;;5028948;28;20037;-66
2024/02/24 07:56:23;;;;;;;2.03;0.50;;;3.90;89.90;;;;;;5028944;28;20053;-66
2024/02/24 07:58:50;;;;;;;0.95;0.45;;;3.90;90.30;;;;;;5024160;28;20124;-67
2024/02/24 08:01:15;;;;;;;1.10;0.50;;;3.90;90.20;;;;;;5026641;28;20070;-65
2024/02/24 08:03:41;;;;;;;0.65;0.57;;;4.00;90.20;;;;;;5031292;28;20206;-66
2024/02/24 08:06:07;;;;;;;0.98;0.57;;;4.00;90.00;;;;;;5027013;28;20162;-66
2024/02/24 08:08:34;;;;;;;0.90;0.50;;;4.10;90.00;;;;;;5022606;28;20057;-66
2024/02/24 08:11:00;;;;;;;1.63;0.55;;;4.10;89.60;;;;;;5028387;28;20105;-66
2024/02/24 08:13:26;;;;;;;1.38;0.52;;;4.10;89.60;;;;;;5021828;28;20450;-66
2024/02/24 08:15:52;;;;;;;0.88;0.50;;;4.20;89.40;;;;;;5025545;28;20045;-66
2024/02/24 08:18:17;;;;;;;0.50;0.50;;;4.30;89.80;;;;;;5021170;28;20417;-67
2024/02/24 08:20:43;;;;;;;1.45;0.40;;;4.30;90.00;;;;;;5024485;28;20483;-66
2024/02/24 08:23:09;;;;;;;1.35;0.80;;;4.50;89.80;;;;;;5024604;28;20025;-66
2024/02/24 08:25:34;;;;;;;2.95;0.50;;;4.60;90.10;;;;;;5023330;28;20061;-66
2024/02/24 08:28:00;;;;;;;2.42;0.98;;;4.60;89.30;;;;;;5024592;28;20146;-66
2024/02/24 08:30:25;;;;;;;2.00;0.60;;;4.60;89.20;;;;;;5021333;28;20549;-68
2024/02/24 08:32:51;;;;;;;0.95;0.55;;;4.70;89.10;;;;;;5022489;28;20047;-66
2024/02/24 08:35:17;;;;;;;1.30;0.50;;;4.80;89.00;;;;;;5029929;28;20068;-66
2024/02/24 08:37:44;;;;;;;1.90;0.50;;;4.80;88.50;;;;;;5027282;28;20045;-66
2024/02/24 08:40:12;;;;;;;2.33;0.65;;;4.90;88.20;;;;;;5032684;28;20033;-66
2024/02/24 08:42:38;;;;;;;1.25;0.43;;;5.00;88.60;;;;;;5027201;28;20427;-66
2024/02/24 08:45:05;;;;;;;0.77;0.60;;;5.20;88.90;;;;;;5032635;28;20038;-66
2024/02/24 08:47:30;;;;;;;4.88;0.77;;;5.50;86.70;;;;;;5031858;28;20379;-63
2024/02/24 08:49:56;;;;;;;0.80;0.60;;;5.70;86.10;;;;;;5029573;28;20026;-64
2024/02/24 08:52:21;;;;;;;2.10;0.43;;;5.90;86.30;;;;;;5027383;28;20040;-64
2024/02/24 08:54:47;;;;;;;1.08;0.52;;;6.10;85.90;;;;;;5023847;28;20045;-66
2024/02/24 08:57:12;;;;;;;0.60;0.57;;;6.30;84.00;;;;;;5020333;28;20555;-64
2024/02/24 08:59:38;;;;;;;1.42;0.75;;;6.40;84.20;;;;;;5022200;28;20033;-64
2024/02/24 09:02:04;;;;;;;0.93;0.47;;;6.60;84.60;;;;;;5018289;28;20029;-65
2024/02/24 09:04:29;;;;;;;3.88;0.55;;;6.60;83.80;;;;;;5027017;28;20444;-64
2024/02/24 09:06:55;;;;;;;1.40;0.50;;;6.20;83.60;;;;;;5020111;28;20034;-65
2024/02/24 09:09:20;;;;;;;1.23;0.68;;;6.10;84.10;;;;;;5036780;28;20116;-64
2024/02/24 09:11:46;;;;;;;1.95;0.65;;;6.10;84.70;;;;;;5032045;28;20052;-64
2024/02/24 09:14:12;;;;;;;0.80;0.50;;;6.10;83.80;;;;;;5030549;28;20566;-65
2024/02/24 09:16:38;;;;;;;3.70;0.55;;;5.90;84.40;;;;;;5022319;28;20438;-65
2024/02/24 09:19:03;;;;;;;2.78;0.65;;;5.80;85.00;;;;;;5027804;28;20033;-64
2024/02/24 09:21:29;;;;;;;0.60;0.47;;;5.80;85.10;;;;;;5024379;28;20042;-64
2024/02/24 09:23:54;;;;;;;1.63;0.63;;;5.70;85.10;;;;;;5027269;28;20045;-65
2024/02/24 09:26:20;;;;;;;1.70;0.90;;;5.70;85.30;;;;;;5032781;28;20107;-65
2024/02/24 09:28:46;;;;;;;0.70;0.40;;;5.70;85.10;;;;;;5032788;28;20037;-65
2024/02/24 09:31:12;;;;;;;1.80;0.60;;;6.10;85.60;;;;;;5030752;28;20046;-65
2024/02/24 09:33:37;;;;;;;2.38;0.77;;;6.30;84.40;;;;;;5022003;28;20061;-66
2024/02/24 09:36:03;;;;;;;0.80;0.35;;;6.70;83.70;;;;;;5040730;28;20037;-65
2024/02/24 09:38:28;;;;;;;1.00;0.55;;;6.60;82.50;;;;;;5028303;28;20473;-64
2024/02/24 09:40:54;;;;;;;0.55;0.50;;;6.90;82.10;;;;;;5024498;28;20040;-66
2024/02/24 09:43:19;;;;;;;1.48;0.50;;;7.10;82.80;;;;;;5027138;28;20037;-67
2024/02/24 09:45:47;;;;;;;1.50;0.52;;;6.80;81.70;;;;;;5028600;28;20444;-67
2024/02/24 09:48:13;;;;;;;2.05;0.90;;;6.90;81.70;;;;;;5027505;28;20056;-66
2024/02/24 09:50:40;;;;;;;2.03;0.82;;;7.30;81.80;;;;;;5026272;28;20084;-66
2024/02/24 09:53:06;;;;;;;0.82;0.60;;;7.60;81.90;;;;;;5033000;28;20036;-66
2024/02/24 09:55:31;;;;;;;0.75;0.65;;;7.80;81.20;;;;;;5021640;28;20044;-66
2024/02/24 09:57:57;;;;;;;0.50;0.50;;;8.00;80.80;;;;;;5026314;28;20033;-66
2024/02/24 10:00:23;;;;;;;1.60;0.50;;;7.90;80.20;;;;;;5022058;28;20075;-65
2024/02/24 10:02:49;;;;;;;1.17;0.68;;;8.10;81.10;;;;;;5026903;28;20437;-66
2024/02/24 10:05:15;;;;;;;0.77;0.55;;;8.00;80.60;;;;;;5032696;28;20072;-66
2024/02/24 10:07:41;;;;;;;2.60;1.20;;;8.10;80.10;;;;;;5029327;28;20044;-67
2024/02/24 10:10:07;;;;;;;0.85;0.50;;;7.80;81.30;;;;;;5027388;28;20630;-67
2024/02/24 10:12:33;;;;;;;0.82;0.30;;;7.80;80.30;;;;;;5023886;28;20472;-68
2024/02/24 10:15:01;;;;;;;1.08;0.60;;;7.50;81.30;;;;;;5030083;28;20084;-67
2024/02/24 10:17:29;;;;;;;0.77;0.50;;;7.60;81.40;;;;;;5029686;28;20038;-68
2024/02/24 10:19:58;;;;;;;0.55;0.45;;;7.70;80.40;;;;;;5027667;28;20049;-67
2024/02/24 10:22:23;;;;;;;0.95;0.40;;;7.90;80.80;;;;;;5025598;28;20037;-68
2024/02/24 10:24:48;;;;;;;0.30;0.25;;;8.20;79.80;;;;;;5026217;28;20060;-68
2024/02/24 10:27:17;;;;;;;1.10;0.50;;;8.10;80.30;;;;;;5019635;28;20424;-66
2024/02/24 10:29:50;;;;;;;1.52;0.80;;;8.20;79.70;;;;;;5024228;28;20026;-66
2024/02/24 10:32:17;;;;;;;0.45;0.45;;;8.40;79.40;;;;;;5032913;28;20029;-66
2024/02/24 10:34:43;;;;;;;1.02;0.85;;;8.50;79.20;;;;;;5021402;28;20057;-65
2024/02/24 10:37:08;;;;;;;0.50;0.35;;;8.60;78.10;;;;;;5025094;28;20033;-66
2024/02/24 10:39:36;;;;;;;1.58;0.82;;;8.20;77.70;;;;;;5024560;28;20056;-67
2024/02/24 10:42:04;;;;;;;1.10;0.38;;;8.00;78.90;;;;;;5019872;28;20029;-67
2024/02/24 10:44:33;;;;;;;0.55;0.30;;;8.30;79.50;;;;;;5026637;28;20367;-66
2024/02/24 10:46:59;;;;;;;0.70;0.50;;;8.20;79.50;;;;;;5035449;28;20076;-67
2024/02/24 10:49:24;;;;;;;0.82;0.30;;;8.00;78.90;;;;;;5029169;28;20124;-67
2024/02/24 10:51:50;;;;;;;1.38;0.50;;;8.00;79.60;;;;;;5031275;28;20114;-67
2024/02/24 10:54:22;;;;;;;1.45;0.73;;;8.10;79.40;;;;;;5025159;28;20450;-67
2024/02/24 10:57:01;;;;;;;1.38;0.80;;;8.30;79.00;;;;;;5026912;28;20112;-67
2024/02/24 10:59:30;;;;;;;1.08;0.65;;;8.70;79.50;;;;;;5027384;28;20525;-67
2024/02/24 11:02:01;;;;;;;0.90;0.50;;;9.30;78.30;;;;;;5016944;28;20341;-67
2024/02/24 11:04:27;;;;;;;0.77;0.57;;;9.30;75.70;;;;;;5040869;28;20070;-67
2024/02/24 11:06:55;;;;;;;1.15;0.50;;;9.30;76.80;;;;;;5026015;28;20345;-67
2024/02/24 11:09:28;;;;;;;0.52;0.40;;;9.30;76.10;;;;;;5024082;28;20084;-68
2024/02/24 11:12:13;;;;;;;1.20;0.57;;;9.20;76.60;;;;;;5024341;28;20371;-67
2024/02/24 11:14:45;;;;;;;1.00;0.50;;;9.60;75.50;;;;;;5028064;28;20045;-67
2024/02/24 11:17:12;;;;;;;0.77;0.43;;;9.30;75.30;;;;;;5030243;28;20025;-67
2024/02/24 11:19:44;;;;;;;0.70;0.50;;;9.20;76.00;;;;;;5031211;28;20032;-68
2024/02/24 11:22:21;;;;;;;3.72;0.57;;;9.10;75.70;;;;;;5027249;28;20108;-67
2024/02/24 11:24:59;;;;;;;0.45;0.45;;;8.80;75.90;;;;;;5031555;28;20084;-67
2024/02/24 11:27:36;;;;;;;0.47;0.40;;;8.80;76.40;;;;;;5021445;28;20033;-67
2024/02/24 11:30:39;;;;;;;1.55;0.60;;;8.60;76.40;;;;;;5024632;28;20026;-67
2024/02/24 11:33:26;;;;;;;1.27;0.60;;;8.80;76.30;;;;;;5021148;28;20492;-67
2024/02/24 11:35:53;;;;;;;1.20;0.52;;;8.70;77.50;;;;;;5027982;28;20052;-67
2024/02/24 11:38:19;;;;;;;1.30;0.70;;;8.80;76.50;;;;;;5024247;28;20056;-67
2024/02/24 11:40:48;;;;;;;1.48;0.73;;;8.70;75.80;;;;;;5027587;28;20348;-67
2024/02/24 11:43:15;;;;;;;1.05;0.73;;;8.50;76.40;;;;;;5028718;28;20022;-67
2024/02/24 11:45:45;;;;;;;0.50;0.40;;;8.10;76.50;;;;;;5029587;28;20558;-70
2024/02/24 11:48:11;;;;;;;0.77;0.50;;;8.20;77.10;;;;;;5026706;28;20179;-67
2024/02/24 11:50:36;;;;;;;0.43;0.40;;;8.70;75.80;;;;;;5016815;28;20104;-67
2024/02/24 11:53:02;;;;;;;0.68;0.47;;;8.80;75.70;;;;;;5024742;28;20060;-67
2024/02/24 11:55:27;;;;;;;0.95;0.40;;;8.90;74.00;;;;;;5042714;28;20116;-67
2024/02/24 11:57:53;;;;;;;0.40;0.40;;;9.10;75.20;;;;;;5030287;28;20038;-67
2024/02/24 12:00:20;;;;;;;1.13;0.40;;;8.80;74.20;;;;;;5021836;28;20378;-66
2024/02/24 12:02:46;;;;;;;0.60;0.43;;;9.20;74.60;;;;;;5027170;28;20037;-67
2024/02/24 12:05:15;;;;;;;0.65;0.30;;;9.60;75.00;;;;;;5027079;28;20022;-67
2024/02/24 12:07:42;;;;;;;0.30;0.30;;;9.60;73.00;;;;;;5026244;28;20125;-66
2024/02/24 12:10:08;;;;;;;0.50;0.30;;;9.50;73.80;;;;;;5025729;28;20041;-66
2024/02/24 12:12:35;;;;;;;0.32;0.32;;;9.10;74.30;;;;;;5024957;28;20030;-66
2024/02/24 12:15:01;;;;;;;1.15;0.65;;;9.10;75.40;;;;;;5028167;28;20088;-65
2024/02/24 12:17:26;;;;;;;2.42;1.00;;;9.10;75.50;;;;;;5026369;28;20105;-65
2024/02/24 12:19:53;;;;;;;2.53;1.08;;;9.00;75.40;;;;;;5024806;28;20033;-66
2024/02/24 12:22:21;;;;;;;0.98;0.50;;;9.00;75.70;;;;;;5019460;28;20043;-67
2024/02/24 12:24:47;;;;;;;1.50;1.02;;;8.90;74.70;;;;;;5020032;28;20029;-66
2024/02/24 12:27:13;;;;;;;1.75;1.13;;;9.10;76.20;;;;;;5024443;28;20432;-65
2024/02/24 12:29:38;;;;;;;1.40;0.55;;;9.00;75.40;;;;;;5027309;28;20211;-66
2024/02/24 12:32:05;;;;;;;0.80;0.50;;;8.70;74.80;;;;;;5025683;28;20112;-66
2024/02/24 12:34:32;;;;;;;1.33;0.30;;;8.80;76.00;;;;;;5021199;28;20045;-66
2024/02/24 12:36:57;;;;;;;0.20;0.20;;;8.90;75.50;;;;;;5022850;28;20033;-66
2024/02/24 12:39:24;;;;;;;0.55;0.40;;;8.60;75.50;;;;;;5023757;28;20543;-66
2024/02/24 12:41:52;;;;;;;0.50;0.50;;;8.60;75.20;;;;;;5021740;28;20313;-66
2024/02/24 12:44:17;;;;;;;0.43;0.30;;;8.60;75.80;;;;;;5026402;28;20533;-67
2024/02/24 12:46:43;;;;;;;0.43;0.30;;;8.60;75.50;;;;;;5025271;28;20195;-67
2024/02/24 12:49:09;;;;;;;0.30;0.30;;;8.70;75.70;;;;;;5026647;28;20060;-67
2024/02/24 12:51:34;;;;;;;0.50;0.30;;;8.70;75.90;;;;;;5022434;28;20025;-67
2024/02/24 12:54:00;;;;;;;0.40;0.35;;;8.60;75.40;;;;;;5037641;28;20333;-67